createdAt,value
2024-02-08T00:00:19.836Z,100671.38
2024-02-08T00:02:47.013Z,100674.09
2024-02-08T00:05:14.345Z,100681.00
2024-02-08T00:07:41.545Z,100689.78
2024-02-08T00:10:10.353Z,100685.44
2024-02-08T00:12:41.590Z,100683.66
2024-02-08T00:15:11.164Z,100674.94
2024-02-08T00:17:38.526Z,100664.44
2024-02-08T00:20:08.129Z,100679.28
2024-02-08T00:22:35.519Z,100672.28
2024-02-08T00:25:02.829Z,100657.47
2024-02-08T00:27:30.065Z,100680.16
2024-02-08T00:29:57.330Z,100680.13
2024-02-08T00:32:26.877Z,100664.34
2024-02-08T00:34:54.180Z,100645.16
2024-02-08T00:37:21.516Z,100667.84
2024-02-08T00:39:48.885Z,100668.72
2024-02-08T00:42:16.149Z,100658.22
2024-02-08T00:44:43.609Z,100665.28
2024-02-08T00:47:12.039Z,100657.41
2024-02-08T00:49:41.153Z,100669.66
2024-02-08T00:52:11.935Z,100659.16
2024-02-08T00:54:39.180Z,100641.72
2024-02-08T00:57:09.526Z,100653.91
2024-02-08T00:59:39.799Z,100658.28
2024-02-08T01:02:08.473Z,100631.25
2024-02-08T01:04:35.890Z,100650.41
2024-02-08T01:07:03.997Z,100646.03
2024-02-08T01:09:31.157Z,100632.97
2024-02-08T01:11:59.352Z,100638.19
2024-02-08T01:14:26.587Z,100656.56
2024-02-08T01:16:55.797Z,100652.16
2024-02-08T01:19:24.396Z,100653.94
2024-02-08T01:21:52.344Z,100650.47
2024-02-08T01:24:20.304Z,100651.34
2024-02-08T01:26:48.082Z,100646.09
2024-02-08T01:29:15.819Z,100646.13
2024-02-08T01:31:42.960Z,100645.25
2024-02-08T01:34:11.333Z,100645.25
2024-02-08T01:36:41.752Z,100648.75
2024-02-08T01:39:14.759Z,100640.03
2024-02-08T01:41:45.089Z,100637.41
2024-02-08T01:44:15.007Z,100640.91
2024-02-08T01:46:42.652Z,100642.66
2024-02-08T01:49:20.974Z,100642.66
2024-02-08T01:51:48.432Z,100642.66
2024-02-08T01:54:16.184Z,100644.38
2024-02-08T01:56:46.176Z,100619.06
2024-02-08T01:59:15.240Z,100614.63
2024-02-08T02:01:48.623Z,100619.84
2024-02-08T02:04:17.703Z,100620.69
2024-02-08T02:06:45.729Z,100625.06
2024-02-08T02:09:24.523Z,100627.69
2024-02-08T02:11:56.758Z,100630.31
2024-02-08T02:14:31.089Z,100621.53
2024-02-08T02:17:20.572Z,100620.63
2024-02-08T02:19:48.408Z,100620.59
2024-02-08T02:22:17.622Z,100609.28
2024-02-08T02:24:46.595Z,100624.13
2024-02-08T02:27:14.199Z,100624.16
2024-02-08T02:29:41.656Z,100606.69
2024-02-08T02:32:11.818Z,100612.78
2024-02-08T02:34:43.862Z,100616.25
2024-02-08T02:37:12.837Z,100597.06
2024-02-08T02:39:42.567Z,100611.88
2024-02-08T02:42:10.537Z,100593.56
2024-02-08T02:44:37.624Z,100602.28
2024-02-08T02:47:05.528Z,100595.34
2024-02-08T02:49:39.461Z,100598.78
2024-02-08T02:52:10.526Z,100606.66
2024-02-08T02:54:38.409Z,100601.44
2024-02-08T02:57:05.776Z,100600.66
2024-02-08T02:59:33.186Z,100615.50
2024-02-08T03:02:00.702Z,100593.66
2024-02-08T03:04:29.908Z,100606.72
2024-02-08T03:06:57.342Z,100609.41
2024-02-08T03:09:32.326Z,100608.53
2024-02-08T03:11:59.859Z,100604.16
2024-02-08T03:14:27.603Z,100606.81
2024-02-08T03:17:02.742Z,100599.84
2024-02-08T03:19:30.695Z,100597.28
2024-02-08T03:21:58.069Z,100596.41
2024-02-08T03:24:25.832Z,100577.22
2024-02-08T03:26:53.570Z,100591.16
2024-02-08T03:29:23.433Z,100595.56
2024-02-08T03:31:54.436Z,100593.84
2024-02-08T03:34:25.543Z,100589.44
2024-02-08T03:36:53.345Z,100587.69
2024-02-08T03:39:26.993Z,100580.78
2024-02-08T03:42:05.921Z,100598.25
2024-02-08T03:44:33.472Z,100586.97
2024-02-08T03:47:10.127Z,100593.94
2024-02-08T03:49:39.126Z,100600.94
2024-02-08T03:52:10.550Z,100608.84
2024-02-08T03:54:38.272Z,100610.63
2024-02-08T03:57:07.657Z,100590.50
2024-02-08T03:59:36.134Z,100594.84
2024-02-08T04:02:07.459Z,100597.47
2024-02-08T04:04:55.845Z,100588.78
2024-02-08T04:07:24.228Z,100577.50
2024-02-08T04:09:57.600Z,100586.22
2024-02-08T04:12:44.046Z,100586.22
2024-02-08T04:15:32.774Z,100593.25
2024-02-08T04:18:18.881Z,100584.53
2024-02-08T04:21:04.651Z,100592.44
2024-02-08T04:23:50.321Z,100576.69
2024-02-08T04:26:36.057Z,100593.31
2024-02-08T04:29:21.696Z,100601.19
2024-02-08T04:32:07.336Z,100587.25
2024-02-08T04:34:58.908Z,100606.47
2024-02-08T04:37:45.383Z,100596.84
2024-02-08T04:40:33.646Z,100594.22
2024-02-08T04:43:19.660Z,100598.59
2024-02-08T04:46:05.467Z,100605.59
2024-02-08T04:48:51.226Z,100610.00
2024-02-08T04:51:37.220Z,100612.63
2024-02-08T04:54:04.651Z,100599.56
2024-02-08T04:56:32.014Z,100610.91
2024-02-08T04:59:20.156Z,100606.53
2024-02-08T05:01:47.538Z,100596.94
2024-02-08T05:04:14.851Z,100596.94
2024-02-08T05:06:45.746Z,100612.66
2024-02-08T05:09:17.462Z,100618.78
2024-02-08T05:11:44.981Z,100606.56
2024-02-08T05:14:12.178Z,100610.06
2024-02-08T05:16:41.364Z,100594.34
2024-02-08T05:19:12.254Z,100616.19
2024-02-08T05:21:45.500Z,100610.94
2024-02-08T05:24:15.091Z,100614.44
2024-02-08T05:26:42.949Z,100621.41
2024-02-08T05:29:10.330Z,100617.94
2024-02-08T05:31:41.167Z,100613.56
2024-02-08T05:34:16.594Z,100613.59
2024-02-08T05:36:45.793Z,100595.25
2024-02-08T05:39:14.286Z,100603.97
2024-02-08T05:41:46.186Z,100620.56
2024-02-08T05:44:14.316Z,100617.09
2024-02-08T05:46:41.683Z,100617.06
2024-02-08T05:49:16.514Z,100631.94
2024-02-08T05:51:53.936Z,100644.16
2024-02-08T05:54:38.674Z,100651.16
2024-02-08T05:57:08.831Z,100638.06
2024-02-08T05:59:39.169Z,100656.41
2024-02-08T06:02:17.248Z,100633.69
2024-02-08T06:04:53.099Z,100642.38
2024-02-08T06:07:22.309Z,100635.34
2024-02-08T06:09:53.952Z,100642.31
2024-02-08T06:12:58.983Z,100633.56
2024-02-08T06:15:33.374Z,100636.84
2024-02-08T06:18:07.714Z,100640.88
2024-02-08T06:20:37.963Z,100629.75
2024-02-08T06:23:19.875Z,100626.56
2024-02-08T06:26:10.710Z,100596.19
2024-02-08T06:28:49.117Z,100601.09
2024-02-08T06:31:20.078Z,100597.81
2024-02-08T06:34:06.953Z,100596.03
2024-02-08T06:36:44.285Z,100599.66
2024-02-08T06:39:29.613Z,100603.28
2024-02-08T06:42:09.120Z,100596.34
2024-02-08T06:44:39.367Z,100599.66
2024-02-08T06:47:25.497Z,100591.03
2024-02-08T06:50:20.884Z,100598.09
2024-02-08T06:53:06.651Z,100595.41
2024-02-08T06:55:52.403Z,100587.16
2024-02-08T06:58:38.439Z,100583.69
2024-02-08T07:01:24.210Z,100589.34
2024-02-08T07:04:10.191Z,100583.91
2024-02-08T07:06:56.123Z,100591.47
2024-02-08T07:09:42.003Z,100575.06
2024-02-08T07:12:27.639Z,100595.00
2024-02-08T07:15:13.513Z,100603.88
2024-02-08T07:17:59.325Z,100596.66
2024-02-08T07:20:45.363Z,100582.31
2024-02-08T07:23:30.924Z,100580.72
2024-02-08T07:26:16.609Z,100583.28
2024-02-08T07:29:02.205Z,100596.69
2024-02-08T07:31:48.094Z,100600.22
2024-02-08T07:34:34.056Z,100591.88
2024-02-08T07:37:20.015Z,100595.06
2024-02-08T07:39:56.139Z,100587.84
2024-02-08T07:42:34.286Z,100581.75
2024-02-08T07:45:06.618Z,100594.94
2024-02-08T07:47:38.437Z,100604.91
2024-02-08T07:50:07.618Z,100602.59
2024-02-08T07:52:47.851Z,100589.00
2024-02-08T07:55:44.356Z,100593.22
2024-02-08T07:58:12.036Z,100600.88
2024-02-08T08:00:39.290Z,100602.78
2024-02-08T08:03:11.240Z,100597.91
2024-02-08T08:05:46.149Z,100588.81
2024-02-08T08:08:27.340Z,100603.03
2024-02-08T08:11:04.786Z,100602.47
2024-02-08T08:13:53.910Z,100603.94
2024-02-08T08:16:31.486Z,100606.47
2024-02-08T08:19:10.139Z,100610.97
2024-02-08T08:22:01.047Z,100615.22
2024-02-08T08:24:28.740Z,100606.94
2024-02-08T08:27:28.167Z,100614.34
2024-02-08T08:30:08.136Z,100603.75
2024-02-08T08:32:41.421Z,100592.81
2024-02-08T08:35:27.393Z,100609.56
2024-02-08T08:38:19.935Z,100606.81
2024-02-08T08:40:51.427Z,100593.13
2024-02-08T08:43:24.612Z,100597.94
2024-02-08T08:46:01.147Z,100600.63
2024-02-08T08:48:33.997Z,100602.81
2024-02-08T08:51:13.102Z,100603.19
2024-02-08T08:53:58.378Z,100599.47
2024-02-08T08:56:30.016Z,100587.09
2024-02-08T08:59:00.785Z,100584.00
2024-02-08T09:01:31.679Z,100574.38
2024-02-08T09:04:12.474Z,100566.91
2024-02-08T09:06:43.646Z,100570.94
2024-02-08T09:09:29.934Z,100561.38
2024-02-08T09:12:00.303Z,100546.59
2024-02-08T09:14:32.542Z,100559.06
2024-02-08T09:17:00.708Z,100546.13
2024-02-08T09:19:49.524Z,100542.78
2024-02-08T09:22:19.829Z,100540.97
2024-02-08T09:24:47.850Z,100541.16
2024-02-08T09:27:18.666Z,100546.53
2024-02-08T09:29:58.203Z,100530.44
2024-02-08T09:32:44.346Z,100520.28
2024-02-08T09:35:15.603Z,100537.31
2024-02-08T09:37:47.426Z,100534.66
2024-02-08T09:40:29.969Z,100531.47
2024-02-08T09:43:13.687Z,100535.31
2024-02-08T09:45:41.197Z,100527.75
2024-02-08T09:48:13.063Z,100526.19
2024-02-08T09:50:49.434Z,100519.53
2024-02-08T09:53:21.094Z,100509.19
2024-02-08T09:56:17.065Z,100523.41
2024-02-08T09:59:05.487Z,100508.47
2024-02-08T10:01:45.632Z,100509.00
2024-02-08T10:04:19.414Z,100514.09
2024-02-08T10:06:55.004Z,100511.94
2024-02-08T10:09:41.654Z,100508.09
2024-02-08T10:12:22.277Z,100491.41
2024-02-08T10:14:56.644Z,100479.84
2024-02-08T10:17:27.381Z,100495.09
2024-02-08T10:20:21.228Z,100495.56
2024-02-08T10:22:57.761Z,100495.56
2024-02-08T10:25:47.898Z,100473.25
2024-02-08T10:28:26.411Z,100483.78
2024-02-08T10:31:07.691Z,100474.28
2024-02-08T10:33:40.217Z,100489.13
2024-02-08T10:36:12.494Z,100474.47
2024-02-08T10:38:59.565Z,100475.41
2024-02-08T10:41:46.836Z,100468.09
2024-02-08T10:44:20.600Z,100462.50
2024-02-08T10:46:49.645Z,100467.78
2024-02-08T10:49:24.981Z,100460.69
2024-02-08T10:52:02.633Z,100450.53
2024-02-08T10:54:55.739Z,100448.09
2024-02-08T10:57:41.543Z,100450.22
2024-02-08T11:00:28.978Z,100449.31
2024-02-08T11:03:10.353Z,100423.91
2024-02-08T11:05:50.778Z,100439.09
2024-02-08T11:08:26.416Z,100437.03
2024-02-08T11:11:00.663Z,100438.63
2024-02-08T11:13:39.531Z,100429.50
2024-02-08T11:16:23.299Z,100425.91
2024-02-08T11:18:56.284Z,100396.91
2024-02-08T11:21:30.464Z,100416.91
2024-02-08T11:23:58.853Z,100416.38
2024-02-08T11:26:29.037Z,100417.78
2024-02-08T11:29:04.020Z,100398.44
2024-02-08T11:31:35.224Z,100408.38
2024-02-08T11:34:16.502Z,100404.25
2024-02-08T11:36:44.444Z,100412.28
2024-02-08T11:39:35.399Z,100382.19
2024-02-08T11:42:06.775Z,100387.13
2024-02-08T11:44:45.323Z,100389.06
2024-02-08T11:47:21.768Z,100392.56
2024-02-08T11:50:03.092Z,100392.41
2024-02-08T11:52:31.499Z,100378.31
2024-02-08T11:55:14.106Z,100386.78
2024-02-08T11:57:43.055Z,100384.72
2024-02-08T12:00:18.024Z,100384.09
2024-02-08T12:02:59.321Z,100369.03
2024-02-08T12:05:28.319Z,100365.03
2024-02-08T12:08:12.469Z,100366.59
2024-02-08T12:10:43.792Z,100358.75
2024-02-08T12:13:15.640Z,100354.00
2024-02-08T12:15:58.396Z,100366.16
2024-02-08T12:18:30.097Z,100347.28
2024-02-08T12:21:01.871Z,100333.72
2024-02-08T12:23:33.166Z,100346.44
2024-02-08T12:26:04.205Z,100325.72
2024-02-08T12:28:57.682Z,100346.78
2024-02-08T12:31:31.537Z,100337.81
2024-02-08T12:34:00.573Z,100337.72
2024-02-08T12:36:34.208Z,100330.44
2024-02-08T12:39:02.990Z,100339.00
2024-02-08T12:41:30.777Z,100325.63
2024-02-08T12:43:58.845Z,100316.72
2024-02-08T12:46:26.083Z,100329.56
2024-02-08T12:48:53.554Z,100336.72
2024-02-08T12:51:21.536Z,100330.69
2024-02-08T12:53:50.979Z,100335.53
2024-02-08T12:56:22.331Z,100325.97
2024-02-08T12:59:02.841Z,100324.16
2024-02-08T13:01:41.058Z,100321.66
2024-02-08T13:04:09.373Z,100319.25
2024-02-08T13:06:36.842Z,100325.53
2024-02-08T13:09:18.615Z,100321.16
2024-02-08T13:11:46.131Z,100329.19
2024-02-08T13:14:15.732Z,100322.78
2024-02-08T13:16:43.343Z,100313.22
2024-02-08T13:19:15.571Z,100301.69
2024-02-08T13:21:46.610Z,100312.16
2024-02-08T13:24:14.042Z,100299.13
2024-02-08T13:26:41.272Z,100268.16
2024-02-08T13:29:12.732Z,100302.91
2024-02-08T13:31:40.779Z,100273.00
2024-02-08T13:34:11.219Z,100274.63
2024-02-08T13:36:44.642Z,100303.88
2024-02-08T13:39:13.560Z,100297.25
2024-02-08T13:41:47.899Z,100314.00
2024-02-08T13:44:18.601Z,100308.88
2024-02-08T13:46:47.560Z,100293.59
2024-02-08T13:49:17.000Z,100308.38
2024-02-08T13:51:47.658Z,100307.16
2024-02-08T13:54:18.224Z,100312.69
2024-02-08T13:56:45.431Z,100301.72
2024-02-08T13:59:16.120Z,100302.44
2024-02-08T14:01:46.296Z,100313.03
2024-02-08T14:04:22.344Z,100316.75
2024-02-08T14:06:57.152Z,100324.88
2024-02-08T14:09:26.874Z,100332.19
2024-02-08T14:11:57.528Z,100323.66
2024-02-08T14:14:31.757Z,100320.41
2024-02-08T14:17:00.475Z,100315.50
2024-02-08T14:19:38.210Z,100306.72
2024-02-08T14:22:08.196Z,100320.50
2024-02-08T14:24:37.682Z,100308.81
2024-02-08T14:27:08.360Z,100316.47
2024-02-08T14:29:39.244Z,100310.34
2024-02-08T14:32:16.982Z,100317.50
2024-02-08T14:34:52.320Z,100308.09
2024-02-08T14:37:23.429Z,100318.28
2024-02-08T14:39:50.811Z,100300.00
2024-02-08T14:42:26.597Z,100298.13
2024-02-08T14:44:55.942Z,100304.38
2024-02-08T14:47:27.158Z,100284.88
2024-02-08T14:49:58.290Z,100312.25
2024-02-08T14:52:45.877Z,100312.41
2024-02-08T14:55:22.843Z,100291.91
2024-02-08T14:57:54.548Z,100313.69
2024-02-08T15:00:34.076Z,100297.38
2024-02-08T15:03:10.581Z,100312.38
2024-02-08T15:06:01.754Z,100310.97
2024-02-08T15:08:29.283Z,100306.19
2024-02-08T15:11:27.365Z,100308.00
2024-02-08T15:13:56.218Z,100301.34
2024-02-08T15:16:23.996Z,100311.09
2024-02-08T15:18:55.714Z,100310.53
2024-02-08T15:21:27.081Z,100305.63
2024-02-08T15:24:16.187Z,100308.53
2024-02-08T15:26:49.658Z,100309.00
2024-02-08T15:29:35.293Z,100310.47
2024-02-08T15:32:06.686Z,100316.94
2024-02-08T15:34:52.906Z,100312.25
2024-02-08T15:37:30.071Z,100298.47
2024-02-08T15:39:59.863Z,100321.63
2024-02-08T15:42:34.263Z,100326.50
2024-02-08T15:45:02.072Z,100306.13
2024-02-08T15:47:36.182Z,100311.88
2024-02-08T15:50:16.883Z,100325.13
2024-02-08T15:52:44.602Z,100323.28
2024-02-08T15:55:17.897Z,100327.19
2024-02-08T15:57:56.339Z,100301.72
2024-02-08T16:00:46.492Z,100324.59
2024-02-08T16:03:19.738Z,100327.84
2024-02-08T16:05:48.182Z,100323.19
2024-02-08T16:08:15.747Z,100317.31
2024-02-08T16:10:46.429Z,100314.16
2024-02-08T16:13:15.325Z,100307.66
2024-02-08T16:15:57.878Z,100303.00
2024-02-08T16:18:27.345Z,100321.84
2024-02-08T16:20:56.679Z,100325.84
2024-02-08T16:23:45.725Z,100329.66
2024-02-08T16:26:14.325Z,100327.53
2024-02-08T16:28:51.443Z,100326.13
2024-02-08T16:31:19.517Z,100333.69
2024-02-08T16:33:56.872Z,100328.09
2024-02-08T16:36:31.535Z,100321.66
2024-02-08T16:39:29.187Z,100341.19
2024-02-08T16:42:02.954Z,100342.44
2024-02-08T16:44:32.277Z,100343.56
2024-02-08T16:47:01.438Z,100349.22
2024-02-08T16:49:32.191Z,100351.25
2024-02-08T16:52:05.872Z,100347.44
2024-02-08T16:54:36.872Z,100348.34
2024-02-08T16:57:05.446Z,100356.47
2024-02-08T16:59:46.529Z,100357.41
2024-02-08T17:02:21.302Z,100349.66
2024-02-08T17:04:51.876Z,100337.59
2024-02-08T17:07:42.902Z,100352.53
2024-02-08T17:10:12.234Z,100355.88
2024-02-08T17:12:57.487Z,100338.69
2024-02-08T17:15:31.370Z,100360.47
2024-02-08T17:18:14.126Z,100357.13
2024-02-08T17:20:54.723Z,100342.50
2024-02-08T17:23:29.750Z,100359.34
2024-02-08T17:26:23.146Z,100351.78
2024-02-08T17:29:08.785Z,100343.47
2024-02-08T17:31:44.064Z,100361.97
2024-02-08T17:34:13.946Z,100365.72
2024-02-08T17:36:45.840Z,100365.97
2024-02-08T17:39:26.030Z,100376.75
2024-02-08T17:41:54.199Z,100350.59
2024-02-08T17:44:21.366Z,100367.09
2024-02-08T17:46:54.406Z,100370.56
2024-02-08T17:49:22.159Z,100353.13
2024-02-08T17:51:58.392Z,100365.38
2024-02-08T17:54:26.885Z,100371.59
2024-02-08T17:56:59.237Z,100371.44
2024-02-08T17:59:26.587Z,100360.50
2024-02-08T18:01:57.791Z,100378.81
2024-02-08T18:04:26.592Z,100377.25
2024-02-08T18:07:00.683Z,100380.03
2024-02-08T18:09:31.326Z,100378.63
2024-02-08T18:12:14.587Z,100390.09
2024-02-08T18:14:43.397Z,100387.13
2024-02-08T18:17:20.651Z,100398.59
2024-02-08T18:19:48.722Z,100401.31
2024-02-08T18:22:16.568Z,100396.88
2024-02-08T18:24:50.697Z,100393.50
2024-02-08T18:27:23.814Z,100403.38
2024-02-08T18:29:52.686Z,100413.31
2024-02-08T18:32:20.711Z,100396.81
2024-02-08T18:34:51.474Z,100396.28
2024-02-08T18:37:26.772Z,100402.41
2024-02-08T18:40:00.309Z,100390.47
2024-02-08T18:42:29.140Z,100389.59
2024-02-08T18:45:02.241Z,100402.66
2024-02-08T18:47:35.075Z,100387.69
2024-02-08T18:50:08.325Z,100400.94
2024-02-08T18:52:37.822Z,100398.28
2024-02-08T18:55:11.192Z,100406.34
2024-02-08T18:57:38.710Z,100398.56
2024-02-08T19:00:14.992Z,100413.59
2024-02-08T19:02:42.492Z,100409.34
2024-02-08T19:05:11.118Z,100403.44
2024-02-08T19:07:38.792Z,100396.53
2024-02-08T19:10:09.134Z,100409.78
2024-02-08T19:12:38.567Z,100421.19
2024-02-08T19:15:08.294Z,100423.16
2024-02-08T19:17:45.319Z,100406.78
2024-02-08T19:20:20.487Z,100421.69
2024-02-08T19:22:49.463Z,100414.09
2024-02-08T19:25:20.789Z,100402.94
2024-02-08T19:27:48.680Z,100432.72
2024-02-08T19:30:16.023Z,100393.69
2024-02-08T19:32:44.711Z,100422.63
2024-02-08T19:35:12.187Z,100437.50
2024-02-08T19:37:39.679Z,100437.69
2024-02-08T19:40:12.671Z,100432.44
2024-02-08T19:42:39.874Z,100415.22
2024-02-08T19:45:24.727Z,100439.81
2024-02-08T19:47:55.474Z,100425.22
2024-02-08T19:50:30.100Z,100435.84
2024-02-08T19:52:59.492Z,100433.38
2024-02-08T19:55:35.341Z,100429.88
2024-02-08T19:58:09.202Z,100427.44
2024-02-08T20:00:39.351Z,100423.97
2024-02-08T20:03:09.678Z,100431.97
2024-02-08T20:05:41.750Z,100437.25
2024-02-08T20:08:11.924Z,100418.16
2024-02-08T20:10:43.264Z,100435.59
2024-02-08T20:13:13.870Z,100451.41
2024-02-08T20:15:43.660Z,100436.66
2024-02-08T20:18:15.568Z,100438.53
2024-02-08T20:20:43.161Z,100442.19
2024-02-08T20:23:15.417Z,100426.59
2024-02-08T20:25:45.104Z,100441.41
2024-02-08T20:28:14.320Z,100437.94
2024-02-08T20:30:48.730Z,100438.94
2024-02-08T20:33:16.570Z,100439.03
2024-02-08T20:35:44.552Z,100440.03
2024-02-08T20:38:16.552Z,100443.69
2024-02-08T20:40:44.097Z,100425.63
2024-02-08T20:43:19.450Z,100431.84
2024-02-08T20:45:50.915Z,100438.94
2024-02-08T20:48:22.396Z,100455.47
2024-02-08T20:50:52.248Z,100449.44
2024-02-08T20:53:19.733Z,100453.03
2024-02-08T20:55:49.471Z,100451.28
2024-02-08T20:58:18.947Z,100446.00
2024-02-08T21:00:48.064Z,100457.34
2024-02-08T21:03:17.404Z,100452.94
2024-02-08T21:05:50.539Z,100449.47
2024-02-08T21:08:18.406Z,100447.66
2024-02-08T21:10:49.021Z,100444.00
2024-02-08T21:13:21.069Z,100437.81
2024-02-08T21:15:50.025Z,100443.91
2024-02-08T21:18:21.164Z,100443.03
2024-02-08T21:20:52.657Z,100448.38
2024-02-08T21:23:20.260Z,100447.50
2024-02-08T21:25:51.825Z,100456.34
2024-02-08T21:28:19.512Z,100453.84
2024-02-08T21:30:47.073Z,100451.25
2024-02-08T21:33:17.661Z,100459.34
2024-02-08T21:35:47.101Z,100465.50
2024-02-08T21:38:15.132Z,100458.47
2024-02-08T21:40:43.780Z,100463.72
2024-02-08T21:43:14.066Z,100476.00
2024-02-08T21:45:48.125Z,100470.75
2024-02-08T21:48:20.030Z,100468.13
2024-02-08T21:50:53.569Z,100470.69
2024-02-08T21:53:24.459Z,100445.50
2024-02-08T21:55:52.021Z,100477.81
2024-02-08T21:58:24.929Z,100461.19
2024-02-08T22:03:38.488Z,100474.28
2024-02-08T22:06:07.423Z,100466.47
2024-02-08T22:08:36.467Z,100469.97
2024-02-08T22:11:04.251Z,100478.69
2024-02-08T22:13:31.738Z,100482.22
2024-02-08T22:15:58.970Z,100489.28
2024-02-08T22:18:26.498Z,100476.22
2024-02-08T22:20:54.138Z,100489.28
2024-02-08T22:23:21.628Z,100489.31
2024-02-08T22:25:50.096Z,100487.59
2024-02-08T22:28:19.017Z,100475.47
2024-02-08T22:30:46.764Z,100481.66
2024-02-08T22:33:15.552Z,100500.88
2024-02-08T22:35:42.678Z,100499.22
2024-02-08T22:38:09.995Z,100498.31
2024-02-08T22:40:37.686Z,100488.84
2024-02-08T22:43:06.437Z,100505.44
2024-02-08T22:45:34.052Z,100492.31
2024-02-08T22:48:01.805Z,100481.03
2024-02-08T22:50:29.685Z,100495.13
2024-02-08T22:52:57.957Z,100504.66
2024-02-08T22:55:25.543Z,100511.72
2024-02-08T22:58:02.190Z,100502.06
2024-02-08T23:00:29.985Z,100488.31
2024-02-08T23:03:13.115Z,100509.31
2024-02-08T23:05:41.751Z,100513.78
2024-02-08T23:08:13.480Z,100512.09
2024-02-08T23:10:41.113Z,100507.72
2024-02-08T23:13:12.346Z,100507.78
2024-02-08T23:15:47.410Z,100492.97
2024-02-08T23:18:24.002Z,100504.41
2024-02-08T23:20:55.225Z,100502.72
2024-02-08T23:23:22.838Z,100506.22
2024-02-08T23:25:50.177Z,100492.34
2024-02-08T23:28:21.891Z,100495.00
2024-02-08T23:30:50.788Z,100500.22
2024-02-08T23:33:19.793Z,100488.09
2024-02-08T23:35:47.352Z,100509.16
2024-02-08T23:38:19.434Z,100504.69
2024-02-08T23:40:46.920Z,100495.22
2024-02-08T23:43:16.256Z,100508.25
2024-02-08T23:45:43.984Z,100509.16
2024-02-08T23:48:11.470Z,100492.59
2024-02-08T23:50:38.734Z,100502.19
2024-02-08T23:53:05.976Z,100496.06
2024-02-08T23:55:36.854Z,100505.72
2024-02-08T23:58:05.753Z,100516.22
